sensor_id;sensor_type;location;lat;lon;timestamp;temperature;humidity
5711;DHT22;61291;52.524;13.422;2023-07-13T00:02:00;18.80;82.40
5711;DHT22;61291;52.524;13.422;2023-07-13T00:04:26;19.00;83.10
5711;DHT22;61291;52.524;13.422;2023-07-13T00:06:52;19.00;82.80
5711;DHT22;61291;52.524;13.422;2023-07-13T00:09:19;19.00;82.90
5711;DHT22;61291;52.524;13.422;2023-07-13T00:11:45;19.00;82.80
5711;DHT22;61291;52.524;13.422;2023-07-13T00:14:13;19.00;83.10
5711;DHT22;61291;52.524;13.422;2023-07-13T00:16:39;19.00;83.10
5711;DHT22;61291;52.524;13.422;2023-07-13T00:19:08;18.90;83.00
5711;DHT22;61291;52.524;13.422;2023-07-13T00:21:34;18.90;83.30
5711;DHT22;61291;52.524;13.422;2023-07-13T00:24:00;18.80;83.30
5711;DHT22;61291;52.524;13.422;2023-07-13T00:26:26;18.80;83.30
5711;DHT22;61291;52.524;13.422;2023-07-13T00:28:51;18.70;83.10
5711;DHT22;61291;52.524;13.422;2023-07-13T00:31:17;18.70;83.20
5711;DHT22;61291;52.524;13.422;2023-07-13T00:33:43;18.60;83.50
5711;DHT22;61291;52.524;13.422;2023-07-13T00:36:09;18.70;83.90
5711;DHT22;61291;52.524;13.422;2023-07-13T00:38:35;18.80;83.60
5711;DHT22;61291;52.524;13.422;2023-07-13T00:41:01;18.70;83.30
5711;DHT22;61291;52.524;13.422;2023-07-13T00:43:29;18.70;83.30
5711;DHT22;61291;52.524;13.422;2023-07-13T00:46:10;18.60;83.30
5711;DHT22;61291;52.524;13.422;2023-07-13T00:48:36;18.50;83.20
5711;DHT22;61291;52.524;13.422;2023-07-13T00:51:02;18.40;83.40
5711;DHT22;61291;52.524;13.422;2023-07-13T00:53:29;18.30;83.40
5711;DHT22;61291;52.524;13.422;2023-07-13T00:55:57;18.20;83.90
5711;DHT22;61291;52.524;13.422;2023-07-13T00:58:25;18.00;84.30
5711;DHT22;61291;52.524;13.422;2023-07-13T01:00:51;17.90;84.60
5711;DHT22;61291;52.524;13.422;2023-07-13T01:03:18;17.80;85.30
5711;DHT22;61291;52.524;13.422;2023-07-13T01:05:43;17.70;85.10
5711;DHT22;61291;52.524;13.422;2023-07-13T01:08:12;17.70;85.40
5711;DHT22;61291;52.524;13.422;2023-07-13T01:10:37;17.60;87.30
5711;DHT22;61291;52.524;13.422;2023-07-13T01:13:09;17.50;87.40
5711;DHT22;61291;52.524;13.422;2023-07-13T01:15:46;17.40;87.60
5711;DHT22;61291;52.524;13.422;2023-07-13T01:18:32;17.30;88.00
5711;DHT22;61291;52.524;13.422;2023-07-13T01:21:03;17.40;90.10
5711;DHT22;61291;52.524;13.422;2023-07-13T01:23:30;17.30;90.10
5711;DHT22;61291;52.524;13.422;2023-07-13T01:25:57;17.30;90.10
5711;DHT22;61291;52.524;13.422;2023-07-13T01:28:23;17.30;90.10
5711;DHT22;61291;52.524;13.422;2023-07-13T01:30:52;17.20;90.20
5711;DHT22;61291;52.524;13.422;2023-07-13T01:33:18;17.20;90.30
5711;DHT22;61291;52.524;13.422;2023-07-13T01:35:45;17.10;90.40
5711;DHT22;61291;52.524;13.422;2023-07-13T01:38:13;17.00;90.60
5711;DHT22;61291;52.524;13.422;2023-07-13T01:40:39;17.00;90.80
5711;DHT22;61291;52.524;13.422;2023-07-13T01:43:05;16.90;91.00
5711;DHT22;61291;52.524;13.422;2023-07-13T01:45:31;16.90;91.20
5711;DHT22;61291;52.524;13.422;2023-07-13T01:47:56;16.80;91.50
5711;DHT22;61291;52.524;13.422;2023-07-13T01:50:23;16.80;91.70
5711;DHT22;61291;52.524;13.422;2023-07-13T01:52:49;16.80;92.10
5711;DHT22;61291;52.524;13.422;2023-07-13T01:55:14;16.80;92.10
5711;DHT22;61291;52.524;13.422;2023-07-13T01:57:40;16.80;92.30
5711;DHT22;61291;52.524;13.422;2023-07-13T02:00:08;16.80;92.50
5711;DHT22;61291;52.524;13.422;2023-07-13T02:02:34;16.80;92.70
5711;DHT22;61291;52.524;13.422;2023-07-13T02:04:59;16.70;92.80
5711;DHT22;61291;52.524;13.422;2023-07-13T02:07:24;16.70;92.90
5711;DHT22;61291;52.524;13.422;2023-07-13T02:09:50;16.60;93.00
5711;DHT22;61291;52.524;13.422;2023-07-13T02:12:15;16.70;93.20
5711;DHT22;61291;52.524;13.422;2023-07-13T02:14:41;16.70;93.30
5711;DHT22;61291;52.524;13.422;2023-07-13T02:17:06;16.70;93.50
5711;DHT22;61291;52.524;13.422;2023-07-13T02:19:32;16.70;93.50
5711;DHT22;61291;52.524;13.422;2023-07-13T02:21:58;16.80;93.70
5711;DHT22;61291;52.524;13.422;2023-07-13T02:24:23;16.80;93.70
5711;DHT22;61291;52.524;13.422;2023-07-13T02:26:49;16.80;93.90
5711;DHT22;61291;52.524;13.422;2023-07-13T02:29:14;16.70;94.10
5711;DHT22;61291;52.524;13.422;2023-07-13T02:31:40;16.80;94.10
5711;DHT22;61291;52.524;13.422;2023-07-13T02:34:05;16.80;94.00
5711;DHT22;61291;52.524;13.422;2023-07-13T02:36:32;16.80;94.00
5711;DHT22;61291;52.524;13.422;2023-07-13T02:39:00;16.90;94.10
5711;DHT22;61291;52.524;13.422;2023-07-13T02:41:26;16.90;94.10
5711;DHT22;61291;52.524;13.422;2023-07-13T02:43:52;17.00;94.20
5711;DHT22;61291;52.524;13.422;2023-07-13T02:46:17;16.90;94.20
5711;DHT22;61291;52.524;13.422;2023-07-13T02:48:45;16.80;94.30
5711;DHT22;61291;52.524;13.422;2023-07-13T02:51:10;16.70;94.60
5711;DHT22;61291;52.524;13.422;2023-07-13T02:53:36;16.60;95.00
5711;DHT22;61291;52.524;13.422;2023-07-13T02:56:03;16.50;95.20
5711;DHT22;61291;52.524;13.422;2023-07-13T02:58:28;16.50;95.60
5711;DHT22;61291;52.524;13.422;2023-07-13T03:00:55;16.50;95.90
5711;DHT22;61291;52.524;13.422;2023-07-13T03:03:21;16.40;96.10
5711;DHT22;61291;52.524;13.422;2023-07-13T03:05:46;16.50;96.40
5711;DHT22;61291;52.524;13.422;2023-07-13T03:08:16;16.40;96.70
5711;DHT22;61291;52.524;13.422;2023-07-13T03:10:41;16.50;96.90
5711;DHT22;61291;52.524;13.422;2023-07-13T03:13:07;16.50;97.10
5711;DHT22;61291;52.524;13.422;2023-07-13T03:15:32;16.50;97.30
5711;DHT22;61291;52.524;13.422;2023-07-13T03:17:57;16.70;97.20
5711;DHT22;61291;52.524;13.422;2023-07-13T03:20:23;16.70;97.30
5711;DHT22;61291;52.524;13.422;2023-07-13T03:22:48;16.80;97.20
5711;DHT22;61291;52.524;13.422;2023-07-13T03:25:14;16.90;97.40
5711;DHT22;61291;52.524;13.422;2023-07-13T03:27:39;17.10;97.20
5711;DHT22;61291;52.524;13.422;2023-07-13T03:30:06;17.20;97.00
5711;DHT22;61291;52.524;13.422;2023-07-13T03:32:32;17.50;96.50
5711;DHT22;61291;52.524;13.422;2023-07-13T03:34:58;17.70;95.90
5711;DHT22;61291;52.524;13.422;2023-07-13T03:37:23;18.00;95.60
5711;DHT22;61291;52.524;13.422;2023-07-13T03:39:49;18.30;95.20
5711;DHT22;61291;52.524;13.422;2023-07-13T03:42:15;18.50;94.80
5711;DHT22;61291;52.524;13.422;2023-07-13T03:44:41;18.70;94.40
5711;DHT22;61291;52.524;13.422;2023-07-13T03:47:07;18.70;94.10
5711;DHT22;61291;52.524;13.422;2023-07-13T03:49:34;18.70;93.90
5711;DHT22;61291;52.524;13.422;2023-07-13T03:52:00;18.70;93.80
5711;DHT22;61291;52.524;13.422;2023-07-13T03:54:25;18.60;93.70
5711;DHT22;61291;52.524;13.422;2023-07-13T03:56:51;18.60;93.70
5711;DHT22;61291;52.524;13.422;2023-07-13T03:59:16;18.60;93.70
5711;DHT22;61291;52.524;13.422;2023-07-13T04:01:43;18.60;93.70
5711;DHT22;61291;52.524;13.422;2023-07-13T04:04:09;18.70;93.80
5711;DHT22;61291;52.524;13.422;2023-07-13T04:06:34;18.60;93.70
5711;DHT22;61291;52.524;13.422;2023-07-13T04:09:02;18.60;93.70
5711;DHT22;61291;52.524;13.422;2023-07-13T04:11:31;18.60;93.70
5711;DHT22;61291;52.524;13.422;2023-07-13T04:13:57;18.70;93.70
5711;DHT22;61291;52.524;13.422;2023-07-13T04:16:23;18.80;93.60
5711;DHT22;61291;52.524;13.422;2023-07-13T04:18:49;18.80;93.40
5711;DHT22;61291;52.524;13.422;2023-07-13T04:21:16;18.90;93.30
5711;DHT22;61291;52.524;13.422;2023-07-13T04:23:42;19.10;93.30
5711;DHT22;61291;52.524;13.422;2023-07-13T04:26:08;19.40;93.10
5711;DHT22;61291;52.524;13.422;2023-07-13T04:28:34;20.00;92.80
5711;DHT22;61291;52.524;13.422;2023-07-13T04:31:00;21.00;92.10
5711;DHT22;61291;52.524;13.422;2023-07-13T04:33:26;21.90;90.80
5711;DHT22;61291;52.524;13.422;2023-07-13T04:35:54;21.90;88.60
5711;DHT22;61291;52.524;13.422;2023-07-13T04:38:27;21.70;87.70
5711;DHT22;61291;52.524;13.422;2023-07-13T04:40:58;21.80;87.70
5711;DHT22;61291;52.524;13.422;2023-07-13T04:43:25;21.90;86.70
5711;DHT22;61291;52.524;13.422;2023-07-13T04:45:52;22.20;86.50
5711;DHT22;61291;52.524;13.422;2023-07-13T04:48:18;22.30;85.70
5711;DHT22;61291;52.524;13.422;2023-07-13T04:50:44;22.30;85.30
5711;DHT22;61291;52.524;13.422;2023-07-13T04:53:10;22.30;84.60
5711;DHT22;61291;52.524;13.422;2023-07-13T04:55:36;22.40;83.80
5711;DHT22;61291;52.524;13.422;2023-07-13T04:58:01;22.40;83.60
5711;DHT22;61291;52.524;13.422;2023-07-13T05:00:28;22.30;83.40
5711;DHT22;61291;52.524;13.422;2023-07-13T05:02:58;22.30;83.30
5711;DHT22;61291;52.524;13.422;2023-07-13T05:05:24;22.30;82.90
5711;DHT22;61291;52.524;13.422;2023-07-13T05:07:51;22.30;82.70
5711;DHT22;61291;52.524;13.422;2023-07-13T05:10:16;22.50;82.80
5711;DHT22;61291;52.524;13.422;2023-07-13T05:12:42;22.50;82.30
5711;DHT22;61291;52.524;13.422;2023-07-13T05:15:07;22.50;82.40
5711;DHT22;61291;52.524;13.422;2023-07-13T05:17:33;22.50;82.30
5711;DHT22;61291;52.524;13.422;2023-07-13T05:19:59;22.80;81.50
5711;DHT22;61291;52.524;13.422;2023-07-13T05:22:34;22.80;81.20
5711;DHT22;61291;52.524;13.422;2023-07-13T05:25:01;22.80;81.00
5711;DHT22;61291;52.524;13.422;2023-07-13T05:27:27;22.80;81.00
5711;DHT22;61291;52.524;13.422;2023-07-13T05:29:53;22.90;80.60
5711;DHT22;61291;52.524;13.422;2023-07-13T05:32:18;23.00;80.50
5711;DHT22;61291;52.524;13.422;2023-07-13T05:34:44;23.30;80.40
5711;DHT22;61291;52.524;13.422;2023-07-13T05:37:10;24.70;79.90
5711;DHT22;61291;52.524;13.422;2023-07-13T05:39:35;26.90;77.00
5711;DHT22;61291;52.524;13.422;2023-07-13T05:42:02;28.50;72.10
5711;DHT22;61291;52.524;13.422;2023-07-13T05:44:28;29.70;69.40
5711;DHT22;61291;52.524;13.422;2023-07-13T05:46:53;30.80;67.00
5711;DHT22;61291;52.524;13.422;2023-07-13T05:49:20;31.80;64.10
5711;DHT22;61291;52.524;13.422;2023-07-13T05:51:45;31.20;61.00
5711;DHT22;61291;52.524;13.422;2023-07-13T05:54:11;31.60;60.10
5711;DHT22;61291;52.524;13.422;2023-07-13T05:56:36;31.80;58.70
5711;DHT22;61291;52.524;13.422;2023-07-13T05:59:02;32.20;58.80
5711;DHT22;61291;52.524;13.422;2023-07-13T06:01:29;31.90;58.30
5711;DHT22;61291;52.524;13.422;2023-07-13T06:03:55;32.90;58.20
5711;DHT22;61291;52.524;13.422;2023-07-13T06:06:20;33.70;57.40
5711;DHT22;61291;52.524;13.422;2023-07-13T06:08:46;34.40;56.40
5711;DHT22;61291;52.524;13.422;2023-07-13T06:11:17;34.10;55.80
5711;DHT22;61291;52.524;13.422;2023-07-13T06:13:43;34.20;55.60
5711;DHT22;61291;52.524;13.422;2023-07-13T06:16:08;35.00;55.00
5711;DHT22;61291;52.524;13.422;2023-07-13T06:18:35;34.60;54.70
5711;DHT22;61291;52.524;13.422;2023-07-13T06:21:16;34.50;54.50
5711;DHT22;61291;52.524;13.422;2023-07-13T06:23:42;34.30;54.70
5711;DHT22;61291;52.524;13.422;2023-07-13T06:26:08;35.20;54.20
5711;DHT22;61291;52.524;13.422;2023-07-13T06:28:35;34.10;54.20
5711;DHT22;61291;52.524;13.422;2023-07-13T06:31:00;33.20;54.50
5711;DHT22;61291;52.524;13.422;2023-07-13T06:33:27;33.90;54.70
5711;DHT22;61291;52.524;13.422;2023-07-13T06:35:53;33.20;55.00
5711;DHT22;61291;52.524;13.422;2023-07-13T06:38:20;32.90;55.30
5711;DHT22;61291;52.524;13.422;2023-07-13T06:40:45;33.90;55.00
5711;DHT22;61291;52.524;13.422;2023-07-13T06:43:11;34.60;54.20
5711;DHT22;61291;52.524;13.422;2023-07-13T06:45:45;34.20;54.10
5711;DHT22;61291;52.524;13.422;2023-07-13T06:48:13;34.50;54.00
5711;DHT22;61291;52.524;13.422;2023-07-13T06:50:38;35.60;53.20
5711;DHT22;61291;52.524;13.422;2023-07-13T06:53:03;36.30;52.60
5711;DHT22;61291;52.524;13.422;2023-07-13T06:55:29;36.90;52.10
5711;DHT22;61291;52.524;13.422;2023-07-13T06:57:54;37.70;51.70
5711;DHT22;61291;52.524;13.422;2023-07-13T07:00:20;38.20;51.10
5711;DHT22;61291;52.524;13.422;2023-07-13T07:02:46;38.10;50.20
5711;DHT22;61291;52.524;13.422;2023-07-13T07:05:11;37.30;49.90
5711;DHT22;61291;52.524;13.422;2023-07-13T07:07:37;36.10;50.70
5711;DHT22;61291;52.524;13.422;2023-07-13T07:10:03;34.80;51.70
5711;DHT22;61291;52.524;13.422;2023-07-13T07:12:28;34.20;52.20
5711;DHT22;61291;52.524;13.422;2023-07-13T07:14:54;34.50;52.10
5711;DHT22;61291;52.524;13.422;2023-07-13T07:17:20;34.00;52.50
5711;DHT22;61291;52.524;13.422;2023-07-13T07:19:45;34.00;52.40
5711;DHT22;61291;52.524;13.422;2023-07-13T07:22:11;33.50;52.90
5711;DHT22;61291;52.524;13.422;2023-07-13T07:24:36;34.50;52.50
5711;DHT22;61291;52.524;13.422;2023-07-13T07:27:02;34.90;51.80
5711;DHT22;61291;52.524;13.422;2023-07-13T07:29:27;35.70;51.80
5711;DHT22;61291;52.524;13.422;2023-07-13T07:31:53;36.90;50.90
5711;DHT22;61291;52.524;13.422;2023-07-13T07:34:19;37.00;50.20
5711;DHT22;61291;52.524;13.422;2023-07-13T07:36:44;35.10;50.10
5711;DHT22;61291;52.524;13.422;2023-07-13T07:39:09;33.00;51.50
5711;DHT22;61291;52.524;13.422;2023-07-13T07:41:35;31.70;52.40
5711;DHT22;61291;52.524;13.422;2023-07-13T07:44:00;31.10;53.50
5711;DHT22;61291;52.524;13.422;2023-07-13T07:46:26;30.90;54.10
5711;DHT22;61291;52.524;13.422;2023-07-13T07:48:52;31.00;54.30
5711;DHT22;61291;52.524;13.422;2023-07-13T07:51:18;31.10;54.60
5711;DHT22;61291;52.524;13.422;2023-07-13T07:53:43;30.50;55.00
5711;DHT22;61291;52.524;13.422;2023-07-13T07:56:09;30.50;55.20
5711;DHT22;61291;52.524;13.422;2023-07-13T07:58:35;30.40;55.40
5711;DHT22;61291;52.524;13.422;2023-07-13T08:01:05;30.40;55.30
5711;DHT22;61291;52.524;13.422;2023-07-13T08:03:31;30.60;55.30
5711;DHT22;61291;52.524;13.422;2023-07-13T08:05:56;30.40;55.50
5711;DHT22;61291;52.524;13.422;2023-07-13T08:08:22;30.30;55.60
5711;DHT22;61291;52.524;13.422;2023-07-13T08:10:47;30.60;55.70
5711;DHT22;61291;52.524;13.422;2023-07-13T08:13:13;30.80;55.60
5711;DHT22;61291;52.524;13.422;2023-07-13T08:15:38;31.00;55.40
5711;DHT22;61291;52.524;13.422;2023-07-13T08:18:04;31.30;54.90
5711;DHT22;61291;52.524;13.422;2023-07-13T08:20:29;31.60;54.50
5711;DHT22;61291;52.524;13.422;2023-07-13T08:22:55;31.60;54.10
5711;DHT22;61291;52.524;13.422;2023-07-13T08:25:20;31.60;53.90
5711;DHT22;61291;52.524;13.422;2023-07-13T08:27:47;31.50;53.70
5711;DHT22;61291;52.524;13.422;2023-07-13T08:30:12;31.70;53.70
5711;DHT22;61291;52.524;13.422;2023-07-13T08:32:38;32.10;53.80
5711;DHT22;61291;52.524;13.422;2023-07-13T08:35:05;32.30;53.40
5711;DHT22;61291;52.524;13.422;2023-07-13T08:37:30;32.70;53.40
5711;DHT22;61291;52.524;13.422;2023-07-13T08:39:56;32.80;52.80
5711;DHT22;61291;52.524;13.422;2023-07-13T08:47:46;32.50;52.60
5711;DHT22;61291;52.524;13.422;2023-07-13T08:50:15;32.50;52.60
5711;DHT22;61291;52.524;13.422;2023-07-13T08:52:43;32.40;52.20
5711;DHT22;61291;52.524;13.422;2023-07-13T08:55:20;32.30;52.20
5711;DHT22;61291;52.524;13.422;2023-07-13T08:57:50;32.20;52.40
5711;DHT22;61291;52.524;13.422;2023-07-13T09:00:18;31.80;52.80
5711;DHT22;61291;52.524;13.422;2023-07-13T09:02:55;31.80;53.00
5711;DHT22;61291;52.524;13.422;2023-07-13T09:05:29;31.30;52.90
5711;DHT22;61291;52.524;13.422;2023-07-13T09:17:02;29.60;55.70
5711;DHT22;61291;52.524;13.422;2023-07-13T09:19:30;29.90;55.50
5711;DHT22;61291;52.524;13.422;2023-07-13T09:21:58;29.90;55.10
5711;DHT22;61291;52.524;13.422;2023-07-13T09:24:36;29.60;55.10
5711;DHT22;61291;52.524;13.422;2023-07-13T09:32:38;28.70;54.90
5711;DHT22;61291;52.524;13.422;2023-07-13T09:35:11;28.50;55.00
5711;DHT22;61291;52.524;13.422;2023-07-13T09:37:37;28.20;54.90
5711;DHT22;61291;52.524;13.422;2023-07-13T09:40:03;27.60;54.10
5711;DHT22;61291;52.524;13.422;2023-07-13T09:42:31;27.50;54.60
5711;DHT22;61291;52.524;13.422;2023-07-13T09:45:00;27.40;54.60
5711;DHT22;61291;52.524;13.422;2023-07-13T09:47:33;27.40;54.80
5711;DHT22;61291;52.524;13.422;2023-07-13T09:50:10;27.30;54.10
5711;DHT22;61291;52.524;13.422;2023-07-13T09:52:47;27.10;54.20
5711;DHT22;61291;52.524;13.422;2023-07-13T09:55:29;27.20;54.60
5711;DHT22;61291;52.524;13.422;2023-07-13T09:57:56;27.50;54.90
5711;DHT22;61291;52.524;13.422;2023-07-13T10:00:27;27.70;54.60
5711;DHT22;61291;52.524;13.422;2023-07-13T10:03:05;27.70;54.30
5711;DHT22;61291;52.524;13.422;2023-07-13T10:05:40;27.80;54.60
5711;DHT22;61291;52.524;13.422;2023-07-13T10:10:57;27.80;54.70
5711;DHT22;61291;52.524;13.422;2023-07-13T10:13:37;27.80;54.40
5711;DHT22;61291;52.524;13.422;2023-07-13T10:16:06;27.90;54.20
5711;DHT22;61291;52.524;13.422;2023-07-13T10:18:46;28.30;54.20
5711;DHT22;61291;52.524;13.422;2023-07-13T10:21:15;28.50;53.90
5711;DHT22;61291;52.524;13.422;2023-07-13T10:23:42;28.40;53.30
5711;DHT22;61291;52.524;13.422;2023-07-13T10:26:22;28.40;53.60
5711;DHT22;61291;52.524;13.422;2023-07-13T10:28:52;29.00;53.50
5711;DHT22;61291;52.524;13.422;2023-07-13T10:31:19;29.20;53.10
5711;DHT22;61291;52.524;13.422;2023-07-13T10:33:45;29.90;53.10
5711;DHT22;61291;52.524;13.422;2023-07-13T10:36:22;30.40;52.80
5711;DHT22;61291;52.524;13.422;2023-07-13T10:38:50;31.00;52.10
5711;DHT22;61291;52.524;13.422;2023-07-13T10:41:19;31.30;51.60
5711;DHT22;61291;52.524;13.422;2023-07-13T10:43:49;31.30;51.40
5711;DHT22;61291;52.524;13.422;2023-07-13T10:46:18;31.40;51.30
5711;DHT22;61291;52.524;13.422;2023-07-13T10:48:48;31.60;50.90
5711;DHT22;61291;52.524;13.422;2023-07-13T10:51:17;31.60;51.10
5711;DHT22;61291;52.524;13.422;2023-07-13T10:53:43;31.70;50.90
5711;DHT22;61291;52.524;13.422;2023-07-13T10:58:42;31.40;50.40
5711;DHT22;61291;52.524;13.422;2023-07-13T11:01:11;31.50;50.40
5711;DHT22;61291;52.524;13.422;2023-07-13T11:03:48;31.50;50.20
5711;DHT22;61291;52.524;13.422;2023-07-13T11:11:34;31.70;50.20
5711;DHT22;61291;52.524;13.422;2023-07-13T11:14:03;31.60;50.50
5711;DHT22;61291;52.524;13.422;2023-07-13T11:21:27;31.10;50.70
5711;DHT22;61291;52.524;13.422;2023-07-13T11:26:42;30.80;50.10
5711;DHT22;61291;52.524;13.422;2023-07-13T11:31:58;30.00;50.30
5711;DHT22;61291;52.524;13.422;2023-07-13T11:34:43;29.40;50.60
5711;DHT22;61291;52.524;13.422;2023-07-13T11:37:15;29.30;51.40
5711;DHT22;61291;52.524;13.422;2023-07-13T11:39:44;29.20;51.80
5711;DHT22;61291;52.524;13.422;2023-07-13T11:42:13;28.90;51.60
5711;DHT22;61291;52.524;13.422;2023-07-13T11:44:45;28.70;51.90
5711;DHT22;61291;52.524;13.422;2023-07-13T11:47:17;28.80;51.90
5711;DHT22;61291;52.524;13.422;2023-07-13T11:49:45;29.10;52.10
5711;DHT22;61291;52.524;13.422;2023-07-13T11:52:19;29.20;51.90
5711;DHT22;61291;52.524;13.422;2023-07-13T11:54:49;29.20;51.70
5711;DHT22;61291;52.524;13.422;2023-07-13T11:57:21;29.30;51.80
5711;DHT22;61291;52.524;13.422;2023-07-13T11:59:50;29.50;51.60
5711;DHT22;61291;52.524;13.422;2023-07-13T12:02:26;29.50;50.80
5711;DHT22;61291;52.524;13.422;2023-07-13T12:04:53;29.50;50.90
5711;DHT22;61291;52.524;13.422;2023-07-13T12:07:19;29.30;51.00
5711;DHT22;61291;52.524;13.422;2023-07-13T12:09:45;29.10;51.20
5711;DHT22;61291;52.524;13.422;2023-07-13T12:12:12;28.90;51.40
5711;DHT22;61291;52.524;13.422;2023-07-13T12:14:38;28.50;51.20
5711;DHT22;61291;52.524;13.422;2023-07-13T12:17:11;28.10;51.50
5711;DHT22;61291;52.524;13.422;2023-07-13T12:19:38;28.00;52.10
5711;DHT22;61291;52.524;13.422;2023-07-13T12:22:03;27.80;52.00
5711;DHT22;61291;52.524;13.422;2023-07-13T12:24:29;27.50;52.40
5711;DHT22;61291;52.524;13.422;2023-07-13T12:27:00;27.50;52.70
5711;DHT22;61291;52.524;13.422;2023-07-13T12:29:26;27.40;52.90
5711;DHT22;61291;52.524;13.422;2023-07-13T12:31:52;27.60;53.10
5711;DHT22;61291;52.524;13.422;2023-07-13T12:34:20;27.80;53.20
5711;DHT22;61291;52.524;13.422;2023-07-13T12:36:53;27.90;53.10
5711;DHT22;61291;52.524;13.422;2023-07-13T12:39:43;27.80;52.60
5711;DHT22;61291;52.524;13.422;2023-07-13T12:42:28;27.80;51.80
5711;DHT22;61291;52.524;13.422;2023-07-13T12:45:20;27.80;52.30
5711;DHT22;61291;52.524;13.422;2023-07-13T12:47:53;27.60;52.00
5711;DHT22;61291;52.524;13.422;2023-07-13T12:50:21;27.20;52.30
5711;DHT22;61291;52.524;13.422;2023-07-13T12:53:03;27.20;52.70
5711;DHT22;61291;52.524;13.422;2023-07-13T12:55:29;27.00;52.40
5711;DHT22;61291;52.524;13.422;2023-07-13T12:57:59;27.10;52.80
5711;DHT22;61291;52.524;13.422;2023-07-13T13:02:55;27.10;52.20
5711;DHT22;61291;52.524;13.422;2023-07-13T13:05:22;27.10;52.40
5711;DHT22;61291;52.524;13.422;2023-07-13T13:07:50;27.40;52.50
5711;DHT22;61291;52.524;13.422;2023-07-13T13:10:16;27.70;52.20
5711;DHT22;61291;52.524;13.422;2023-07-13T13:12:41;27.80;52.20
5711;DHT22;61291;52.524;13.422;2023-07-13T13:15:11;27.80;52.30
5711;DHT22;61291;52.524;13.422;2023-07-13T13:17:39;28.00;52.40
5711;DHT22;61291;52.524;13.422;2023-07-13T13:20:18;28.30;52.10
5711;DHT22;61291;52.524;13.422;2023-07-13T13:22:44;28.50;52.00
5711;DHT22;61291;52.524;13.422;2023-07-13T13:25:13;28.70;51.50
5711;DHT22;61291;52.524;13.422;2023-07-13T13:27:41;28.80;51.60
5711;DHT22;61291;52.524;13.422;2023-07-13T13:30:15;28.50;51.60
5711;DHT22;61291;52.524;13.422;2023-07-13T13:32:42;28.70;51.60
5711;DHT22;61291;52.524;13.422;2023-07-13T13:35:18;28.80;51.50
5711;DHT22;61291;52.524;13.422;2023-07-13T13:37:46;28.90;51.60
5711;DHT22;61291;52.524;13.422;2023-07-13T13:40:22;28.80;51.00
5711;DHT22;61291;52.524;13.422;2023-07-13T13:42:48;29.10;51.30
5711;DHT22;61291;52.524;13.422;2023-07-13T13:45:14;29.10;51.20
5711;DHT22;61291;52.524;13.422;2023-07-13T13:47:41;29.20;51.10
5711;DHT22;61291;52.524;13.422;2023-07-13T13:50:17;29.00;51.40
5711;DHT22;61291;52.524;13.422;2023-07-13T13:52:44;28.70;51.70
5711;DHT22;61291;52.524;13.422;2023-07-13T13:55:14;28.50;51.60
5711;DHT22;61291;52.524;13.422;2023-07-13T13:57:40;28.50;51.20
5711;DHT22;61291;52.524;13.422;2023-07-13T14:00:06;28.60;51.40
5711;DHT22;61291;52.524;13.422;2023-07-13T14:02:33;28.40;51.40
5711;DHT22;61291;52.524;13.422;2023-07-13T14:05:00;28.30;51.50
5711;DHT22;61291;52.524;13.422;2023-07-13T14:07:26;28.50;51.30
5711;DHT22;61291;52.524;13.422;2023-07-13T14:09:59;28.70;51.00
5711;DHT22;61291;52.524;13.422;2023-07-13T14:12:26;29.00;51.00
5711;DHT22;61291;52.524;13.422;2023-07-13T14:14:54;29.10;50.90
5711;DHT22;61291;52.524;13.422;2023-07-13T14:17:22;29.00;51.20
5711;DHT22;61291;52.524;13.422;2023-07-13T14:19:50;28.90;51.20
5711;DHT22;61291;52.524;13.422;2023-07-13T14:22:24;28.70;51.40
5711;DHT22;61291;52.524;13.422;2023-07-13T14:24:52;28.80;51.60
5711;DHT22;61291;52.524;13.422;2023-07-13T14:27:19;28.60;51.70
5711;DHT22;61291;52.524;13.422;2023-07-13T14:29:44;28.70;52.00
5711;DHT22;61291;52.524;13.422;2023-07-13T14:32:11;28.90;52.00
5711;DHT22;61291;52.524;13.422;2023-07-13T14:34:37;29.10;52.10
5711;DHT22;61291;52.524;13.422;2023-07-13T14:37:03;29.20;52.10
5711;DHT22;61291;52.524;13.422;2023-07-13T14:39:29;29.00;51.60
5711;DHT22;61291;52.524;13.422;2023-07-13T14:41:56;28.90;51.60
5711;DHT22;61291;52.524;13.422;2023-07-13T14:44:26;28.80;51.80
5711;DHT22;61291;52.524;13.422;2023-07-13T14:46:52;28.90;51.70
5711;DHT22;61291;52.524;13.422;2023-07-13T14:51:49;29.00;52.00
5711;DHT22;61291;52.524;13.422;2023-07-13T14:54:14;28.90;51.60
5711;DHT22;61291;52.524;13.422;2023-07-13T14:56:40;28.60;51.70
5711;DHT22;61291;52.524;13.422;2023-07-13T14:59:05;28.30;51.60
5711;DHT22;61291;52.524;13.422;2023-07-13T15:01:33;28.20;51.90
5711;DHT22;61291;52.524;13.422;2023-07-13T15:03:59;28.10;51.90
5711;DHT22;61291;52.524;13.422;2023-07-13T15:06:25;28.10;52.10
5711;DHT22;61291;52.524;13.422;2023-07-13T15:08:50;27.90;51.90
5711;DHT22;61291;52.524;13.422;2023-07-13T15:11:16;27.70;52.00
5711;DHT22;61291;52.524;13.422;2023-07-13T15:13:42;27.50;51.70
5711;DHT22;61291;52.524;13.422;2023-07-13T15:16:16;27.50;51.80
5711;DHT22;61291;52.524;13.422;2023-07-13T15:18:42;27.50;51.70
5711;DHT22;61291;52.524;13.422;2023-07-13T15:21:18;27.50;51.60
5711;DHT22;61291;52.524;13.422;2023-07-13T15:23:44;27.50;51.70
5711;DHT22;61291;52.524;13.422;2023-07-13T15:26:14;27.50;51.60
5711;DHT22;61291;52.524;13.422;2023-07-13T15:28:44;27.40;51.70
5711;DHT22;61291;52.524;13.422;2023-07-13T15:31:30;27.30;51.50
5711;DHT22;61291;52.524;13.422;2023-07-13T15:33:58;27.20;51.50
5711;DHT22;61291;52.524;13.422;2023-07-13T15:36:25;27.00;51.70
5711;DHT22;61291;52.524;13.422;2023-07-13T15:38:54;26.90;52.10
5711;DHT22;61291;52.524;13.422;2023-07-13T15:41:26;26.80;52.20
5711;DHT22;61291;52.524;13.422;2023-07-13T15:43:54;26.80;52.60
5711;DHT22;61291;52.524;13.422;2023-07-13T15:46:22;26.70;52.70
5711;DHT22;61291;52.524;13.422;2023-07-13T15:48:49;26.60;53.20
5711;DHT22;61291;52.524;13.422;2023-07-13T15:51:25;26.60;53.20
5711;DHT22;61291;52.524;13.422;2023-07-13T15:53:59;26.60;53.10
5711;DHT22;61291;52.524;13.422;2023-07-13T15:56:29;26.70;53.20
5711;DHT22;61291;52.524;13.422;2023-07-13T15:58:58;26.60;53.20
5711;DHT22;61291;52.524;13.422;2023-07-13T16:01:24;26.70;53.50
5711;DHT22;61291;52.524;13.422;2023-07-13T16:03:51;26.60;53.40
5711;DHT22;61291;52.524;13.422;2023-07-13T16:06:32;26.50;53.70
5711;DHT22;61291;52.524;13.422;2023-07-13T16:08:58;26.40;53.80
5711;DHT22;61291;52.524;13.422;2023-07-13T16:11:27;26.40;54.20
5711;DHT22;61291;52.524;13.422;2023-07-13T16:13:53;26.50;54.20
5711;DHT22;61291;52.524;13.422;2023-07-13T16:16:21;26.60;54.10
5711;DHT22;61291;52.524;13.422;2023-07-13T16:18:53;26.70;53.90
5711;DHT22;61291;52.524;13.422;2023-07-13T16:21:23;26.70;54.20